createdAt,value
2018-05-26T00:00:22.469Z,10.07
2018-05-26T00:02:54.750Z,8.20
2018-05-26T00:05:27.036Z,8.30
2018-05-26T00:07:59.545Z,11.53
2018-05-26T00:10:31.815Z,15.63
2018-05-26T00:13:04.324Z,13.00
2018-05-26T00:15:36.748Z,14.37
2018-05-26T00:18:09.104Z,14.47
2018-05-26T00:20:41.386Z,14.17
2018-05-26T00:23:14.040Z,14.10
2018-05-26T00:25:46.339Z,13.10
2018-05-26T00:28:18.848Z,12.63
2018-05-26T00:30:51.099Z,12.23
2018-05-26T00:33:23.572Z,10.97
2018-05-26T00:35:56.009Z,11.40
2018-05-26T00:38:29.489Z,11.93
2018-05-26T00:41:01.901Z,10.77
2018-05-26T00:43:34.273Z,8.97
2018-05-26T00:46:06.465Z,8.40
2018-05-26T00:48:38.928Z,6.43
2018-05-26T00:51:11.327Z,10.27
2018-05-26T00:53:43.797Z,7.83
2018-05-26T00:56:16.284Z,5.80
2018-05-26T00:58:48.568Z,7.93
2018-05-26T01:01:20.999Z,8.80
2018-05-26T01:03:53.386Z,10.53
2018-05-26T01:06:25.636Z,9.03
2018-05-26T01:08:58.598Z,9.93
2018-05-26T01:11:31.021Z,9.93
2018-05-26T01:14:03.438Z,10.23
2018-05-26T01:16:35.799Z,10.30
2018-05-26T01:19:08.321Z,10.23
2018-05-26T01:21:40.797Z,10.30
2018-05-26T01:24:13.549Z,8.37
2018-05-26T01:26:45.923Z,9.10
2018-05-26T01:29:18.183Z,11.10
2018-05-26T01:31:50.478Z,10.37
2018-05-26T01:34:22.735Z,9.10
2018-05-26T01:36:55.160Z,10.43
2018-05-26T01:39:27.892Z,11.60
2018-05-26T01:42:00.328Z,11.10
2018-05-26T01:44:32.803Z,11.17
2018-05-26T01:47:05.158Z,11.93
2018-05-26T01:49:37.557Z,10.80
2018-05-26T01:52:09.938Z,10.93
2018-05-26T01:54:42.298Z,9.03
2018-05-26T01:57:14.762Z,9.20
2018-05-26T01:59:47.155Z,8.27
2018-05-26T02:02:19.553Z,8.77
2018-05-26T02:04:52.024Z,8.70
2018-05-26T02:07:24.314Z,10.07
2018-05-26T02:09:56.661Z,12.67
2018-05-26T02:12:28.966Z,12.93
2018-05-26T02:15:01.311Z,12.20
2018-05-26T02:17:33.537Z,10.07
2018-05-26T02:20:05.873Z,10.30
2018-05-26T02:22:38.153Z,10.40
2018-05-26T02:25:10.750Z,9.23
2018-05-26T02:27:43.232Z,9.43
2018-05-26T02:30:15.637Z,9.03
2018-05-26T02:32:47.936Z,9.67
2018-05-26T02:35:20.276Z,9.47
2018-05-26T02:37:52.563Z,9.23
2018-05-26T02:40:25.081Z,9.37
2018-05-26T02:42:57.523Z,10.10
2018-05-26T02:45:29.848Z,10.43
2018-05-26T02:48:02.135Z,9.93
2018-05-26T02:50:34.509Z,9.93
2018-05-26T02:53:06.951Z,8.90
2018-05-26T02:55:39.392Z,10.57
2018-05-26T02:58:11.781Z,8.97
2018-05-26T03:00:44.089Z,8.90
2018-05-26T03:03:16.518Z,9.10
2018-05-26T03:05:54.967Z,10.77
2018-05-26T03:08:33.505Z,9.87
2018-05-26T03:11:12.024Z,11.20
2018-05-26T03:13:50.578Z,9.07
2018-05-26T03:16:28.964Z,9.17
2018-05-26T03:19:01.400Z,11.17
2018-05-26T03:21:33.766Z,9.47
2018-05-26T03:24:06.089Z,10.50
2018-05-26T03:26:38.519Z,10.83
2018-05-26T03:29:10.873Z,12.03
2018-05-26T03:31:43.153Z,11.00
2018-05-26T03:34:15.539Z,10.00
2018-05-26T03:36:47.968Z,10.23
2018-05-26T03:39:20.255Z,11.07
2018-05-26T03:41:52.684Z,12.80
2018-05-26T03:44:25.017Z,11.30
2018-05-26T03:46:57.538Z,11.83
2018-05-26T03:49:29.825Z,11.30
2018-05-26T03:52:02.101Z,10.07
2018-05-26T03:54:46.527Z,10.13
2018-05-26T03:57:31.180Z,11.23
2018-05-26T04:00:11.316Z,10.13
2018-05-26T04:02:43.603Z,11.80
2018-05-26T04:05:16.013Z,11.87
2018-05-26T04:07:48.277Z,10.80
2018-05-26T04:10:20.459Z,10.30
2018-05-26T04:12:52.935Z,10.00
2018-05-26T04:15:25.159Z,10.20
2018-05-26T04:17:57.535Z,14.10
2018-05-26T04:20:29.794Z,14.63
2018-05-26T04:23:02.153Z,14.17
2018-05-26T04:25:34.427Z,13.00
2018-05-26T04:28:06.986Z,13.87
2018-05-26T04:30:39.452Z,15.30
2018-05-26T04:33:11.812Z,14.03
2018-05-26T04:35:44.025Z,12.53
2018-05-26T04:38:16.288Z,13.67
2018-05-26T04:40:48.540Z,13.93
2018-05-26T04:43:20.966Z,14.17
2018-05-26T04:45:53.445Z,12.97
2018-05-26T04:48:25.688Z,13.30
2018-05-26T04:50:57.946Z,12.90
2018-05-26T04:53:30.327Z,13.60
2018-05-26T04:56:02.819Z,13.47
2018-05-26T04:58:35.287Z,12.77
2018-05-26T05:01:07.694Z,13.93
2018-05-26T05:03:40.125Z,12.00
2018-05-26T05:06:12.466Z,13.10
2018-05-26T05:08:44.811Z,12.77
2018-05-26T05:11:17.260Z,12.03
2018-05-26T05:13:49.766Z,11.83
2018-05-26T05:16:22.195Z,11.13
2018-05-26T05:18:54.522Z,11.43
2018-05-26T05:21:26.959Z,9.87
2018-05-26T05:23:59.274Z,11.67
2018-05-26T05:26:31.630Z,11.67
2018-05-26T05:29:04.236Z,11.60
2018-05-26T05:31:36.590Z,10.47
2018-05-26T05:34:08.970Z,9.03
2018-05-26T05:36:41.228Z,7.97
2018-05-26T05:39:13.540Z,8.57
2018-05-26T05:41:47.588Z,9.00
2018-05-26T05:44:20.352Z,9.67
2018-05-26T05:46:52.538Z,9.30
2018-05-26T05:49:25.279Z,10.47
2018-05-26T05:51:58.469Z,9.17
2018-05-26T05:54:31.057Z,8.90
2018-05-26T05:57:03.636Z,8.97
2018-05-26T05:59:35.971Z,9.77
2018-05-26T06:02:08.400Z,9.03
2018-05-26T06:04:40.876Z,8.03
2018-05-26T06:07:13.773Z,7.70
2018-05-26T06:09:46.213Z,8.73
2018-05-26T06:12:18.597Z,9.03
2018-05-26T06:14:50.992Z,8.40
2018-05-26T06:17:25.303Z,8.47
2018-05-26T06:23:08.281Z,9.20
2018-05-26T06:25:40.644Z,10.00
2018-05-26T06:28:13.238Z,10.00
2018-05-26T06:30:45.665Z,9.43
2018-05-26T06:33:18.282Z,9.63
2018-05-26T06:35:50.951Z,7.90
2018-05-26T06:38:24.657Z,8.70
2018-05-26T06:40:57.210Z,9.03
2018-05-26T06:43:29.742Z,9.37
2018-05-26T06:46:02.044Z,9.13
2018-05-26T06:48:34.510Z,8.23
2018-05-26T06:51:06.979Z,8.70
2018-05-26T06:53:39.445Z,8.60
2018-05-26T06:56:11.879Z,8.87
2018-05-26T06:58:44.522Z,8.47
2018-05-26T07:01:16.908Z,9.23
2018-05-26T07:03:49.328Z,9.50
2018-05-26T07:06:21.816Z,7.93
2018-05-26T07:08:54.439Z,8.57
2018-05-26T07:11:26.792Z,8.40
2018-05-26T07:13:59.082Z,8.00
2018-05-26T07:16:31.550Z,7.33
2018-05-26T07:19:03.998Z,7.87
2018-05-26T07:21:36.295Z,7.90
2018-05-26T07:24:08.707Z,7.77
2018-05-26T07:26:40.984Z,6.83
2018-05-26T07:29:13.320Z,7.73
2018-05-26T07:31:46.879Z,8.20
2018-05-26T07:34:19.527Z,7.27
2018-05-26T07:36:51.975Z,5.97
2018-05-26T07:39:24.370Z,4.43
2018-05-26T07:41:56.649Z,4.40
2018-05-26T07:44:28.983Z,4.40
2018-05-26T07:47:01.407Z,4.43
2018-05-26T07:49:33.828Z,4.70
2018-05-26T07:52:06.301Z,4.33
2018-05-26T07:54:38.649Z,4.67
2018-05-26T07:57:11.087Z,3.90
2018-05-26T07:59:43.548Z,3.77
2018-05-26T08:02:16.026Z,4.23
2018-05-26T08:04:48.691Z,4.20
2018-05-26T08:07:20.972Z,4.37
2018-05-26T08:09:53.286Z,4.00
2018-05-26T08:12:25.744Z,3.70
2018-05-26T08:14:58.232Z,3.60
2018-05-26T08:17:30.619Z,3.50
2018-05-26T08:20:03.262Z,3.50
2018-05-26T08:22:35.616Z,4.20
2018-05-26T08:25:08.158Z,3.40
2018-05-26T08:27:40.527Z,3.80
2018-05-26T08:30:12.918Z,2.93
2018-05-26T08:32:45.387Z,3.50
2018-05-26T08:35:17.986Z,3.73
2018-05-26T08:37:50.483Z,3.13
2018-05-26T08:40:22.849Z,3.70
2018-05-26T08:42:55.240Z,3.50
2018-05-26T08:45:27.618Z,3.07
2018-05-26T08:48:00.122Z,3.23
2018-05-26T08:50:32.535Z,3.03
2018-05-26T08:53:04.986Z,3.77
2018-05-26T08:55:37.270Z,3.83
2018-05-26T08:58:09.665Z,2.97
2018-05-26T09:00:42.064Z,3.67
2018-05-26T09:03:14.492Z,3.10
2018-05-26T09:05:47.564Z,3.13
2018-05-26T09:08:20.077Z,3.70
2018-05-26T09:10:52.439Z,3.30
2018-05-26T09:13:24.891Z,3.30
2018-05-26T09:15:57.466Z,3.17
2018-05-26T09:18:29.715Z,2.93
2018-05-26T09:21:02.288Z,3.13
2018-05-26T09:23:34.769Z,3.10
2018-05-26T09:26:07.163Z,3.17
2018-05-26T09:28:39.669Z,4.23
2018-05-26T09:31:12.160Z,4.20
2018-05-26T09:33:44.695Z,3.80
2018-05-26T09:36:17.302Z,3.23
2018-05-26T09:38:49.719Z,2.90
2018-05-26T09:41:22.256Z,3.17
2018-05-26T09:43:54.488Z,2.97
2018-05-26T09:46:27.011Z,3.20
2018-05-26T09:48:59.358Z,3.03
2018-05-26T09:51:31.725Z,3.07
2018-05-26T09:54:04.223Z,3.13
2018-05-26T09:56:36.634Z,3.40
2018-05-26T09:59:08.867Z,2.80
2018-05-26T10:01:41.240Z,3.03
2018-05-26T10:04:13.717Z,3.10
2018-05-26T10:06:46.268Z,3.40
2018-05-26T10:09:24.398Z,3.60
2018-05-26T10:11:56.918Z,3.47
2018-05-26T10:14:29.248Z,3.23
2018-05-26T10:17:01.633Z,3.30
2018-05-26T10:19:34.081Z,3.13
2018-05-26T10:22:06.607Z,3.00
2018-05-26T10:24:39.062Z,3.10
2018-05-26T10:27:11.662Z,3.43
2018-05-26T10:29:44.032Z,3.50
2018-05-26T10:32:16.534Z,2.63
2018-05-26T10:34:49.140Z,4.83
2018-05-26T10:37:21.577Z,3.70
2018-05-26T10:39:54.028Z,2.57
2018-05-26T10:42:26.378Z,3.50
2018-05-26T10:44:58.698Z,3.73
2018-05-26T10:47:34.663Z,3.23
2018-05-26T10:50:07.092Z,3.00
2018-05-26T10:52:39.505Z,3.37
2018-05-26T10:55:11.880Z,3.00
2018-05-26T10:57:44.239Z,2.80
2018-05-26T11:00:16.782Z,3.50
2018-05-26T11:02:49.288Z,3.40
2018-05-26T11:05:21.813Z,3.20
2018-05-26T11:07:54.491Z,3.33
2018-05-26T11:10:26.834Z,3.20
2018-05-26T11:12:59.258Z,3.13
2018-05-26T11:15:31.727Z,3.43
2018-05-26T11:18:04.091Z,3.13
2018-05-26T11:20:36.508Z,3.50
2018-05-26T11:23:09.801Z,3.23
2018-05-26T11:25:42.266Z,3.33
2018-05-26T11:28:14.794Z,3.70
2018-05-26T11:30:47.228Z,3.50
2018-05-26T11:33:19.606Z,3.00
2018-05-26T11:35:52.166Z,3.30
2018-05-26T11:38:24.610Z,2.90
2018-05-26T11:40:56.930Z,2.67
2018-05-26T11:43:29.481Z,2.87
2018-05-26T11:46:01.804Z,2.47
2018-05-26T11:48:34.303Z,3.07
2018-05-26T11:51:06.753Z,2.60
2018-05-26T11:53:39.204Z,2.90
2018-05-26T11:56:11.628Z,2.70
2018-05-26T11:58:44.148Z,4.40
2018-05-26T12:01:16.410Z,2.37
2018-05-26T12:03:48.792Z,2.20
2018-05-26T12:06:21.909Z,2.33
2018-05-26T12:08:54.264Z,2.20
2018-05-26T12:11:26.806Z,1.90
2018-05-26T12:13:59.142Z,2.07
2018-05-26T12:16:31.524Z,2.00
2018-05-26T12:19:03.880Z,1.70
2018-05-26T12:21:36.150Z,1.67
2018-05-26T12:24:08.649Z,1.60
2018-05-26T12:26:41.003Z,2.00
2018-05-26T12:29:13.459Z,2.10
2018-05-26T12:31:45.854Z,2.47
2018-05-26T12:34:18.408Z,2.30
2018-05-26T12:36:51.065Z,1.97
2018-05-26T12:39:23.539Z,2.63
2018-05-26T12:41:56.024Z,2.10
2018-05-26T12:44:28.383Z,2.10
2018-05-26T12:47:00.925Z,2.60
2018-05-26T12:49:33.281Z,2.57
2018-05-26T12:52:05.814Z,2.23
2018-05-26T12:54:38.331Z,2.33
2018-05-26T12:57:10.769Z,2.63
2018-05-26T12:59:43.358Z,2.50
2018-05-26T13:02:15.600Z,2.40
2018-05-26T13:04:47.935Z,2.97
2018-05-26T13:07:20.396Z,3.23
2018-05-26T13:09:52.965Z,3.00
2018-05-26T13:12:25.441Z,2.47
2018-05-26T13:14:57.936Z,1.97
2018-05-26T13:17:30.197Z,2.07
2018-05-26T13:20:02.760Z,1.77
2018-05-26T13:22:35.182Z,1.80
2018-05-26T13:25:07.767Z,1.97
2018-05-26T13:27:40.230Z,1.80
2018-05-26T13:30:12.640Z,2.07
2018-05-26T13:32:45.158Z,2.10
2018-05-26T13:35:17.500Z,1.90
2018-05-26T13:37:50.450Z,2.17
2018-05-26T13:40:22.899Z,2.40
2018-05-26T13:42:55.422Z,2.50
2018-05-26T13:45:27.831Z,3.63
2018-05-26T13:48:00.298Z,2.60
2018-05-26T13:50:32.670Z,2.30
2018-05-26T13:53:05.188Z,3.07
2018-05-26T13:55:38.032Z,2.60
2018-05-26T13:58:10.598Z,2.30
2018-05-26T14:00:43.075Z,2.80
2018-05-26T14:03:15.506Z,2.47
2018-05-26T14:05:47.897Z,2.63
2018-05-26T14:08:20.409Z,2.73
2018-05-26T14:10:52.895Z,3.40
2018-05-26T14:13:25.394Z,2.50
2018-05-26T14:15:57.710Z,2.80
2018-05-26T14:18:30.196Z,2.87
2018-05-26T14:21:02.663Z,2.77
2018-05-26T14:23:35.081Z,3.50
2018-05-26T14:26:07.757Z,3.17
2018-05-26T14:28:40.151Z,3.10
2018-05-26T14:31:12.804Z,3.57
2018-05-26T14:33:45.409Z,3.03
2018-05-26T14:36:18.510Z,3.83
2018-05-26T14:38:50.904Z,3.30
2018-05-26T14:41:23.454Z,3.70
2018-05-26T14:43:55.906Z,3.57
2018-05-26T14:46:28.255Z,3.30
2018-05-26T14:49:00.574Z,3.67
2018-05-26T14:51:33.134Z,3.47
2018-05-26T14:54:05.550Z,3.60
2018-05-26T14:56:38.188Z,3.93
2018-05-26T14:59:10.675Z,3.30
2018-05-26T15:01:43.210Z,3.23
2018-05-26T15:04:21.825Z,3.20
2018-05-26T15:06:54.332Z,3.27
2018-05-26T15:09:26.696Z,2.63
2018-05-26T15:11:59.385Z,2.70
2018-05-26T15:14:31.822Z,2.90
2018-05-26T15:17:04.328Z,2.47
2018-05-26T15:19:36.829Z,2.30
2018-05-26T15:22:09.224Z,2.37
2018-05-26T15:24:41.906Z,2.30
2018-05-26T15:27:14.302Z,2.70
2018-05-26T15:29:46.649Z,2.57
2018-05-26T15:32:18.966Z,2.70
2018-05-26T15:34:51.371Z,2.80
2018-05-26T15:37:23.794Z,5.20
2018-05-26T15:39:56.387Z,3.50
2018-05-26T15:42:29.145Z,4.47
2018-05-26T15:45:01.561Z,3.83
2018-05-26T15:47:34.034Z,2.60
2018-05-26T15:50:06.499Z,3.03
2018-05-26T15:52:39.020Z,3.07
2018-05-26T15:55:11.491Z,3.27
2018-05-26T15:57:44.950Z,2.80
2018-05-26T16:00:18.469Z,3.20
2018-05-26T16:02:51.808Z,3.00
2018-05-26T16:05:24.131Z,3.13
2018-05-26T16:07:56.695Z,3.30
2018-05-26T16:10:29.409Z,3.03
2018-05-26T16:13:02.891Z,3.43
2018-05-26T16:15:35.362Z,3.33
2018-05-26T16:18:07.749Z,3.00
2018-05-26T16:20:40.219Z,4.80
2018-05-26T16:23:12.889Z,3.30
2018-05-26T16:25:45.122Z,4.87
2018-05-26T16:28:17.524Z,3.90
2018-05-26T16:30:50.505Z,7.20
2018-05-26T16:33:23.085Z,7.60
2018-05-26T16:35:55.480Z,6.57
2018-05-26T16:38:28.065Z,4.83
2018-05-26T16:41:00.684Z,4.43
2018-05-26T16:43:33.054Z,3.03
2018-05-26T16:46:05.389Z,3.03
2018-05-26T16:48:37.947Z,3.07
2018-05-26T16:51:10.682Z,16.30
2018-05-26T16:53:43.318Z,5.73
2018-05-26T16:56:16.659Z,3.87
2018-05-26T16:58:49.445Z,4.73
2018-05-26T17:01:21.816Z,4.90
2018-05-26T17:03:54.217Z,4.00
2018-05-26T17:06:26.561Z,30.17
2018-05-26T17:08:59.183Z,9.17
2018-05-26T17:11:31.616Z,19.33
2018-05-26T17:14:04.267Z,7.27
2018-05-26T17:16:36.548Z,11.20
2018-05-26T17:19:09.110Z,10.20
2018-05-26T17:21:41.557Z,9.87
2018-05-26T17:24:14.107Z,5.73
2018-05-26T17:26:46.531Z,5.70
2018-05-26T17:29:19.070Z,4.57
2018-05-26T17:31:51.705Z,4.63
2018-05-26T17:34:24.318Z,6.80
2018-05-26T17:36:56.616Z,8.50
2018-05-26T17:39:29.142Z,6.20
2018-05-26T17:42:01.761Z,5.80
2018-05-26T17:44:34.320Z,4.97
2018-05-26T17:47:06.664Z,10.20
2018-05-26T17:49:39.149Z,10.47
2018-05-26T17:52:11.599Z,13.80
2018-05-26T17:54:44.148Z,10.77
2018-05-26T17:57:16.628Z,10.00
2018-05-26T17:59:49.166Z,8.87
2018-05-26T18:02:21.590Z,8.10
2018-05-26T18:04:53.944Z,7.43
2018-05-26T18:07:26.211Z,6.60
2018-05-26T18:09:58.580Z,7.33
2018-05-26T18:12:30.992Z,7.40
2018-05-26T18:15:03.612Z,6.17
2018-05-26T18:17:36.027Z,6.17
2018-05-26T18:20:08.367Z,5.70
2018-05-26T18:22:40.915Z,5.43
2018-05-26T18:25:13.850Z,4.93
2018-05-26T18:27:47.689Z,5.67
2018-05-26T18:30:20.195Z,9.00
2018-05-26T18:32:52.829Z,11.33
2018-05-26T18:35:25.219Z,10.83
2018-05-26T18:37:57.913Z,7.90
2018-05-26T18:40:30.240Z,7.97
2018-05-26T18:43:02.826Z,7.83
2018-05-26T18:45:35.609Z,8.03
2018-05-26T18:48:07.947Z,6.53
2018-05-26T18:50:40.559Z,6.27
2018-05-26T18:53:13.457Z,6.43
2018-05-26T18:55:46.047Z,8.27
2018-05-26T18:58:18.610Z,7.20
2018-05-26T19:00:51.147Z,6.30
2018-05-26T19:03:23.608Z,7.17
2018-05-26T19:05:55.992Z,9.33
2018-05-26T19:08:28.468Z,10.43
2018-05-26T19:11:00.860Z,9.07
2018-05-26T19:57:19.812Z,81.57
2018-05-26T19:59:52.274Z,48.97
2018-05-26T20:02:24.780Z,15.40
2018-05-26T20:05:01.503Z,13.07
2018-05-26T20:07:34.999Z,12.63
2018-05-26T20:10:15.509Z,13.30
2018-05-26T20:12:53.383Z,13.83
2018-05-26T20:15:30.794Z,11.80
2018-05-26T20:18:03.379Z,9.93
2018-05-26T20:20:37.639Z,10.23
2018-05-26T20:23:10.583Z,9.57
2018-05-26T20:25:43.072Z,10.13
2018-05-26T20:28:24.374Z,9.13
2018-05-26T20:30:57.013Z,9.43
2018-05-26T20:33:29.713Z,27.93
2018-05-26T20:36:02.075Z,12.07
2018-05-26T20:41:13.558Z,9.60
2018-05-26T20:43:46.048Z,7.27
2018-05-26T20:46:18.343Z,7.07
2018-05-26T20:48:50.967Z,7.60
2018-05-26T20:51:28.824Z,8.17
2018-05-26T20:54:01.283Z,8.00
2018-05-26T20:56:33.779Z,7.60
2018-05-26T20:59:06.770Z,7.57
2018-05-26T21:01:40.586Z,7.47
2018-05-26T21:04:13.047Z,7.80
2018-05-26T21:06:45.608Z,8.40
2018-05-26T21:09:18.139Z,7.83
2018-05-26T21:11:50.592Z,10.83
2018-05-26T21:14:23.392Z,9.87
2018-05-26T21:16:55.784Z,9.97
2018-05-26T21:19:28.282Z,8.10
2018-05-26T21:22:00.817Z,8.07
2018-05-26T21:24:33.189Z,9.43
2018-05-26T21:27:05.607Z,8.50
2018-05-26T21:29:38.120Z,8.50
2018-05-26T21:32:10.634Z,8.90
2018-05-26T21:34:43.078Z,7.93
2018-05-26T21:37:15.545Z,8.83
2018-05-26T21:39:47.879Z,6.63
2018-05-26T21:42:20.297Z,7.50
2018-05-26T21:44:53.085Z,7.80
2018-05-26T21:47:25.552Z,7.77
2018-05-26T21:49:57.834Z,7.27
2018-05-26T21:52:30.323Z,7.83
2018-05-26T21:55:02.850Z,8.53
2018-05-26T21:57:35.189Z,8.03
2018-05-26T22:00:07.954Z,10.33
2018-05-26T22:02:40.279Z,9.10
2018-05-26T22:05:12.779Z,9.27
2018-05-26T22:07:45.056Z,10.03
2018-05-26T22:10:17.584Z,8.93
2018-05-26T22:12:49.859Z,9.40
2018-05-26T22:15:22.516Z,8.57
2018-05-26T22:17:54.948Z,10.07
2018-05-26T22:20:27.319Z,10.30
2018-05-26T22:22:59.731Z,9.57
2018-05-26T22:25:32.251Z,8.20
2018-05-26T22:28:04.606Z,9.27
2018-05-26T22:30:37.098Z,9.13
2018-05-26T22:33:09.514Z,8.60
2018-05-26T22:35:42.029Z,8.63
2018-05-26T22:38:14.459Z,7.90
2018-05-26T22:40:46.797Z,7.77
2018-05-26T22:43:19.363Z,8.33
2018-05-26T22:45:51.985Z,8.47
2018-05-26T22:48:24.445Z,8.07
2018-05-26T22:50:56.819Z,7.83
2018-05-26T22:53:29.154Z,8.30
2018-05-26T22:56:01.586Z,8.73
2018-05-26T22:58:33.975Z,9.87
2018-05-26T23:01:06.783Z,9.37
2018-05-26T23:03:39.317Z,9.70
2018-05-26T23:06:11.646Z,10.00
2018-05-26T23:08:44.103Z,10.23
2018-05-26T23:11:16.496Z,10.67
2018-05-26T23:13:48.950Z,10.43
2018-05-26T23:16:21.639Z,10.70
2018-05-26T23:18:53.989Z,10.87
2018-05-26T23:21:26.355Z,11.40
2018-05-26T23:23:58.709Z,10.47
2018-05-26T23:26:31.219Z,9.53
2018-05-26T23:29:03.535Z,9.87
2018-05-26T23:31:36.148Z,10.03
2018-05-26T23:34:08.457Z,10.33
2018-05-26T23:36:40.807Z,10.67
2018-05-26T23:39:13.219Z,9.53
2018-05-26T23:41:45.795Z,9.40
2018-05-26T23:44:18.234Z,9.57
2018-05-26T23:46:51.674Z,10.93
2018-05-26T23:49:24.146Z,9.73
2018-05-26T23:51:56.501Z,9.70
2018-05-26T23:54:28.992Z,10.60
2018-05-26T23:57:01.521Z,10.30
2018-05-26T23:59:34.033Z,10.60
